createdAt,value
2018-10-02T00:02:00.855Z,93197.12
2018-10-02T00:04:28.934Z,93202.61
2018-10-02T00:06:56.957Z,93205.39
2018-10-02T00:09:25.008Z,93209.97
2018-10-02T00:11:58.523Z,93212.19
2018-10-02T00:14:28.320Z,93212.03
2018-10-02T00:16:56.650Z,93213.10
2018-10-02T00:19:24.754Z,93218.59
2018-10-02T00:21:52.838Z,93212.03
2018-10-02T00:24:20.966Z,93211.25
2018-10-02T00:26:49.212Z,93215.81
2018-10-02T00:29:17.244Z,93207.52
2018-10-02T00:31:45.338Z,93210.88
2018-10-02T00:34:13.565Z,93208.44
2018-10-02T00:36:41.671Z,93206.32
2018-10-02T00:39:09.812Z,93207.91
2018-10-02T00:41:38.010Z,93204.14
2018-10-02T00:44:06.104Z,93212.12
2018-10-02T00:46:34.172Z,93219.21
2018-10-02T00:49:02.268Z,93217.56
2018-10-02T00:51:30.309Z,93227.41
2018-10-02T00:53:58.505Z,93222.56
2018-10-02T00:56:26.655Z,93224.27
2018-10-02T00:58:54.875Z,93225.05
2018-10-02T01:01:23.074Z,93221.92
2018-10-02T01:03:51.165Z,93224.70
2018-10-02T01:06:19.223Z,93224.06
2018-10-02T01:08:47.318Z,93228.66
2018-10-02T01:11:15.347Z,93223.66
2018-10-02T01:13:43.381Z,93223.02
2018-10-02T01:16:11.474Z,93230.55
2018-10-02T01:18:39.519Z,93229.98
2018-10-02T01:21:07.575Z,93224.41
2018-10-02T01:23:35.885Z,93223.59
2018-10-02T01:26:04.089Z,93223.00
2018-10-02T01:28:32.193Z,93229.66
2018-10-02T01:31:00.411Z,93233.98
2018-10-02T01:33:28.624Z,93229.75
2018-10-02T01:35:56.670Z,93228.28
2018-10-02T01:38:25.088Z,93223.92
2018-10-02T01:40:53.273Z,93227.64
2018-10-02T01:43:21.356Z,93223.84
2018-10-02T01:45:49.568Z,93219.30
2018-10-02T01:48:17.666Z,93214.42
2018-10-02T01:50:45.677Z,93216.55
2018-10-02T01:53:13.796Z,93219.04
2018-10-02T01:55:41.869Z,93215.98
2018-10-02T01:58:10.137Z,93220.73
2018-10-02T02:00:38.215Z,93217.92
2018-10-02T02:03:06.311Z,93227.13
2018-10-02T02:05:34.344Z,93227.69
2018-10-02T02:08:02.464Z,93223.23
2018-10-02T02:10:30.629Z,93229.52
2018-10-02T02:12:59.665Z,93229.52
2018-10-02T02:15:27.818Z,93225.70
2018-10-02T02:17:55.887Z,93226.74
2018-10-02T02:20:23.872Z,93215.20
2018-10-02T02:22:52.070Z,93231.02
2018-10-02T02:25:20.202Z,93228.25
2018-10-02T02:27:48.393Z,93220.73
2018-10-02T02:30:16.510Z,93222.70
2018-10-02T02:32:44.627Z,93229.27
2018-10-02T02:35:12.754Z,93229.83
2018-10-02T02:37:41.097Z,93231.78
2018-10-02T02:40:09.132Z,93235.38
2018-10-02T02:42:37.344Z,93230.95
2018-10-02T02:45:05.509Z,93230.73
2018-10-02T02:48:42.999Z,93226.45
2018-10-02T02:51:16.515Z,93234.88
2018-10-02T02:53:44.703Z,93231.47
2018-10-02T02:56:12.806Z,93235.27
2018-10-02T02:58:40.917Z,93240.53
2018-10-02T03:01:09.329Z,93240.78
2018-10-02T03:03:37.405Z,93245.97
2018-10-02T03:06:05.460Z,93253.02
2018-10-02T03:08:33.735Z,93259.39
2018-10-02T03:11:01.846Z,93260.97
2018-10-02T03:13:30.000Z,93255.76
2018-10-02T03:15:58.207Z,93259.39
2018-10-02T03:18:26.327Z,93259.58
2018-10-02T03:20:54.403Z,93269.45
2018-10-02T03:23:24.210Z,93266.75
2018-10-02T03:25:52.367Z,93265.35
2018-10-02T03:28:20.652Z,93268.77
2018-10-02T03:30:48.839Z,93260.83
2018-10-02T03:33:16.939Z,93264.14
2018-10-02T03:35:45.048Z,93260.36
2018-10-02T03:38:13.109Z,93262.20
2018-10-02T03:40:41.285Z,93270.26
2018-10-02T03:43:09.488Z,93265.00
2018-10-02T03:45:37.886Z,93261.38
2018-10-02T03:48:06.299Z,93262.38
2018-10-02T03:50:34.414Z,93263.30
2018-10-02T03:53:02.528Z,93272.69
2018-10-02T03:55:30.634Z,93273.45
2018-10-02T03:57:58.844Z,93277.50
2018-10-02T04:00:26.961Z,93278.30
2018-10-02T04:02:55.093Z,93275.83
2018-10-02T04:05:23.145Z,93271.39
2018-10-02T04:07:51.186Z,93276.89
2018-10-02T04:10:19.376Z,93276.17
2018-10-02T04:12:47.629Z,93280.39
2018-10-02T04:15:15.796Z,93281.22
2018-10-02T04:17:44.046Z,93283.62
2018-10-02T04:20:12.132Z,93287.58
2018-10-02T04:22:40.407Z,93287.66
2018-10-02T04:25:08.553Z,93287.55
2018-10-02T04:27:36.801Z,93294.33
2018-10-02T04:30:05.975Z,93292.09
2018-10-02T04:32:34.216Z,93292.37
2018-10-02T04:35:02.272Z,93292.88
2018-10-02T04:37:30.381Z,93297.51
2018-10-02T04:39:58.473Z,93294.80
2018-10-02T04:42:26.676Z,93297.69
2018-10-02T04:44:54.816Z,93304.35
2018-10-02T04:47:23.027Z,93305.87
2018-10-02T04:49:51.138Z,93313.55
2018-10-02T04:52:19.722Z,93303.52
2018-10-02T04:54:48.341Z,93309.28
2018-10-02T04:57:16.795Z,93307.33
2018-10-02T04:59:45.210Z,93306.50
2018-10-02T05:02:13.833Z,93307.81
2018-10-02T05:04:42.218Z,93312.00
2018-10-02T05:07:11.023Z,93314.61
2018-10-02T05:09:39.878Z,93321.36
2018-10-02T05:12:08.282Z,93324.52
2018-10-02T05:14:36.992Z,93336.28
2018-10-02T05:17:05.128Z,93339.68
2018-10-02T05:19:34.494Z,93346.25
2018-10-02T05:22:02.773Z,93350.48
2018-10-02T05:24:30.927Z,93349.77
2018-10-02T05:26:59.219Z,93343.14
2018-10-02T05:29:27.402Z,93351.11
2018-10-02T05:31:55.572Z,93356.59
2018-10-02T05:34:23.716Z,93362.41
2018-10-02T05:36:52.017Z,93356.22
2018-10-02T05:39:20.441Z,93370.83
2018-10-02T05:41:49.189Z,93371.82
2018-10-02T05:44:17.433Z,93374.27
2018-10-02T05:46:46.189Z,93381.75
2018-10-02T05:49:17.625Z,93378.47
2018-10-02T05:51:50.575Z,93378.58
2018-10-02T05:54:19.240Z,93385.87
2018-10-02T05:56:48.248Z,93394.88
2018-10-02T05:59:16.592Z,93393.44
2018-10-02T06:01:45.083Z,93396.89
2018-10-02T06:04:13.230Z,93394.48
2018-10-02T06:06:41.706Z,93394.75
2018-10-02T06:09:11.498Z,93399.81
2018-10-02T06:11:40.661Z,93401.59
2018-10-02T06:14:09.829Z,93402.27
2018-10-02T06:16:38.965Z,93413.66
2018-10-02T06:19:07.139Z,93414.95
2018-10-02T06:21:35.892Z,93420.94
2018-10-02T06:24:04.922Z,93415.68
2018-10-02T06:26:34.029Z,93411.14
2018-10-02T06:29:02.147Z,93413.01
2018-10-02T06:31:31.624Z,93415.29
2018-10-02T06:34:00.157Z,93415.59
2018-10-02T06:36:29.138Z,93420.55
2018-10-02T06:38:57.878Z,93424.04
2018-10-02T06:41:26.197Z,93418.10
2018-10-02T06:43:54.675Z,93420.38
2018-10-02T06:46:23.565Z,93420.59
2018-10-02T06:48:52.078Z,93424.64
2018-10-02T06:51:20.397Z,93426.94
2018-10-02T06:53:48.609Z,93433.77
2018-10-02T06:56:17.045Z,93428.03
2018-10-02T06:58:45.357Z,93437.90
2018-10-02T07:01:14.010Z,93441.78
2018-10-02T07:03:42.432Z,93445.19
2018-10-02T07:06:10.989Z,93449.88
2018-10-02T07:08:39.651Z,93447.21
2018-10-02T07:11:08.221Z,93449.75
2018-10-02T07:13:36.677Z,93450.45
2018-10-02T07:16:05.168Z,93449.20
2018-10-02T07:18:33.479Z,93454.82
2018-10-02T07:21:02.210Z,93457.00
2018-10-02T07:23:30.491Z,93454.00
2018-10-02T07:25:58.830Z,93467.45
2018-10-02T07:28:27.359Z,93461.45
2018-10-02T07:30:55.469Z,93463.79
2018-10-02T07:33:23.848Z,93457.45
2018-10-02T07:35:52.199Z,93463.09
2018-10-02T07:38:20.516Z,93465.77
2018-10-02T07:40:48.942Z,93464.87
2018-10-02T07:43:17.611Z,93464.59
2018-10-02T07:45:46.209Z,93468.09
2018-10-02T07:48:15.056Z,93465.67
2018-10-02T07:50:43.618Z,93470.89
2018-10-02T07:53:11.922Z,93473.66
2018-10-02T07:55:41.005Z,93476.67
2018-10-02T07:58:09.326Z,93488.48
2018-10-02T08:00:37.736Z,93490.38
2018-10-02T08:03:05.972Z,93490.91
2018-10-02T08:05:34.745Z,93487.10
2018-10-02T08:08:03.456Z,93492.09
2018-10-02T08:10:32.071Z,93487.84
2018-10-02T08:13:00.813Z,93489.29
2018-10-02T08:15:32.148Z,93491.36
2018-10-02T08:18:04.684Z,93492.88
2018-10-02T08:20:33.493Z,93482.53
2018-10-02T08:23:01.971Z,93483.86
2018-10-02T08:25:30.256Z,93487.98
2018-10-02T08:27:58.966Z,93488.41
2018-10-02T08:30:27.849Z,93477.28
2018-10-02T08:32:56.422Z,93480.64
2018-10-02T08:35:25.127Z,93494.42
2018-10-02T08:37:54.267Z,93484.56
2018-10-02T08:40:22.487Z,93477.60
2018-10-02T08:42:51.286Z,93479.54
2018-10-02T08:45:19.803Z,93480.12
2018-10-02T08:47:48.421Z,93480.61
2018-10-02T08:50:17.532Z,93480.11
2018-10-02T08:52:45.823Z,93472.22
2018-10-02T08:55:14.807Z,93474.91
2018-10-02T08:57:43.303Z,93480.41
2018-10-02T09:00:11.879Z,93474.20
2018-10-02T09:02:40.514Z,93468.56
2018-10-02T09:05:10.062Z,93471.70
2018-10-02T09:07:39.154Z,93466.06
2018-10-02T09:10:08.751Z,93476.68
2018-10-02T09:12:37.188Z,93474.81
2018-10-02T09:15:12.154Z,93468.99
2018-10-02T09:17:34.447Z,93466.78
2018-10-02T09:20:02.771Z,93473.10
2018-10-02T09:22:31.018Z,93472.30
2018-10-02T09:24:59.410Z,93476.11
2018-10-02T09:27:27.931Z,93465.88
2018-10-02T09:30:01.702Z,93469.50
2018-10-02T09:32:35.427Z,93468.03
2018-10-02T09:35:09.165Z,93466.84
2018-10-02T09:37:43.388Z,93461.84
2018-10-02T09:40:17.204Z,93450.97
2018-10-02T09:42:51.326Z,93451.53
2018-10-02T09:45:19.767Z,93453.21
2018-10-02T09:47:47.941Z,93458.05
2018-10-02T09:50:18.760Z,93446.97
2018-10-02T09:52:50.339Z,93449.16
2018-10-02T09:55:18.678Z,93445.75
2018-10-02T09:57:46.846Z,93430.80
2018-10-02T10:00:21.699Z,93430.80
2018-10-02T10:02:57.784Z,93435.38
2018-10-02T10:05:26.544Z,93427.45
2018-10-02T10:07:55.584Z,93418.13
2018-10-02T10:10:25.280Z,93414.02
2018-10-02T10:12:54.142Z,93414.66
2018-10-02T10:15:22.492Z,93411.89
2018-10-02T10:17:51.436Z,93413.17
2018-10-02T10:20:20.684Z,93401.77
2018-10-02T10:22:50.329Z,93407.84
2018-10-02T10:25:19.668Z,93408.53
2018-10-02T10:27:48.057Z,93405.83
2018-10-02T10:30:16.560Z,93402.60
2018-10-02T10:32:45.576Z,93394.92
2018-10-02T10:35:14.243Z,93398.30
2018-10-02T10:37:42.655Z,93402.08
2018-10-02T10:40:11.709Z,93396.59
2018-10-02T10:42:40.487Z,93395.91
2018-10-02T10:45:08.796Z,93392.61
2018-10-02T10:47:38.107Z,93386.31
2018-10-02T10:50:06.643Z,93385.95
2018-10-02T10:52:34.944Z,93385.59
2018-10-02T10:55:15.949Z,93377.56
2018-10-02T10:57:44.371Z,93384.30
2018-10-02T11:00:12.552Z,93387.24
2018-10-02T11:02:41.667Z,93389.74
2018-10-02T11:05:10.232Z,93385.65
2018-10-02T11:07:40.176Z,93382.38
2018-10-02T11:10:09.719Z,93377.80
2018-10-02T11:12:38.409Z,93377.80
2018-10-02T11:15:07.225Z,93382.23
2018-10-02T11:17:36.194Z,93377.96
2018-10-02T11:20:06.437Z,93378.05
2018-10-02T11:22:35.831Z,93370.41
2018-10-02T11:25:05.061Z,93374.09
2018-10-02T11:27:33.775Z,93374.61
2018-10-02T11:30:02.356Z,93374.36
2018-10-02T11:32:31.432Z,93372.13
2018-10-02T11:34:59.643Z,93368.70
2018-10-02T11:37:28.350Z,93365.32
2018-10-02T11:39:59.245Z,93371.98
2018-10-02T11:42:27.561Z,93366.32
2018-10-02T11:44:56.802Z,93360.11
2018-10-02T11:47:25.425Z,93361.91
2018-10-02T11:49:53.954Z,93362.20
2018-10-02T11:52:23.152Z,93359.80
2018-10-02T11:54:53.978Z,93362.45
2018-10-02T11:57:23.283Z,93360.37
2018-10-02T11:59:54.767Z,93361.22
2018-10-02T12:02:25.663Z,93355.22
2018-10-02T12:04:56.767Z,93346.55
2018-10-02T12:07:25.601Z,93354.67
2018-10-02T12:09:54.672Z,93351.70
2018-10-02T12:12:23.320Z,93359.89
2018-10-02T12:14:51.976Z,93362.37
2018-10-02T12:17:21.004Z,93354.58
2018-10-02T12:19:50.448Z,93353.00
2018-10-02T12:22:18.564Z,93347.66
2018-10-02T12:24:48.048Z,93353.09
2018-10-02T12:27:16.588Z,93354.46
2018-10-02T12:29:45.420Z,93344.23
2018-10-02T12:32:14.177Z,93350.25
2018-10-02T12:34:44.136Z,93348.89
2018-10-02T12:37:13.895Z,93346.14
2018-10-02T12:39:44.230Z,93351.13
2018-10-02T12:42:13.135Z,93352.39
2018-10-02T12:44:46.171Z,93354.30
2018-10-02T12:47:14.932Z,93354.97
2018-10-02T12:49:43.362Z,93349.85
2018-10-02T12:52:12.952Z,93349.20
2018-10-02T12:54:53.146Z,93353.31
2018-10-02T12:57:23.943Z,93348.34
2018-10-02T12:59:53.962Z,93351.30
2018-10-02T13:02:22.821Z,93342.97
2018-10-02T13:04:52.715Z,93346.92
2018-10-02T13:07:21.106Z,93334.91
2018-10-02T13:09:49.371Z,93341.60
2018-10-02T13:12:17.658Z,93335.81
2018-10-02T13:14:45.960Z,93347.48
2018-10-02T13:17:14.158Z,93356.59
2018-10-02T13:19:42.260Z,93349.34
2018-10-02T13:22:10.546Z,93351.82
2018-10-02T13:24:39.136Z,93362.27
2018-10-02T13:27:07.575Z,93352.80
2018-10-02T13:29:37.373Z,93354.94
2018-10-02T13:32:05.955Z,93358.10
2018-10-02T13:34:34.197Z,93353.21
2018-10-02T13:37:02.467Z,93352.97
2018-10-02T13:39:31.400Z,93347.91
2018-10-02T13:42:00.284Z,93346.98
2018-10-02T13:44:28.668Z,93347.68
2018-10-02T13:46:57.234Z,93345.96
2018-10-02T13:49:25.442Z,93346.31
2018-10-02T13:51:53.612Z,93348.88
2018-10-02T13:54:21.859Z,93344.45
2018-10-02T13:56:50.387Z,93345.91
2018-10-02T13:59:18.609Z,93351.64
2018-10-02T14:01:46.903Z,93345.98
2018-10-02T14:04:15.059Z,93347.77
2018-10-02T14:06:43.157Z,93341.53
2018-10-02T14:09:11.242Z,93347.59
2018-10-02T14:11:39.641Z,93339.45
2018-10-02T14:14:07.842Z,93345.80
2018-10-02T14:16:36.154Z,93343.91
2018-10-02T14:19:04.472Z,93353.59
2018-10-02T14:21:32.647Z,93346.05
2018-10-02T14:24:00.894Z,93353.32
2018-10-02T14:26:29.048Z,93352.57
2018-10-02T14:28:57.272Z,93348.98
2018-10-02T14:31:25.701Z,93347.63
2018-10-02T14:33:54.209Z,93350.67
2018-10-02T14:36:22.446Z,93354.10
2018-10-02T14:38:50.580Z,93356.71
2018-10-02T14:41:18.711Z,93359.91
2018-10-02T14:43:47.015Z,93363.02
2018-10-02T14:46:16.718Z,93361.15
2018-10-02T14:48:45.292Z,93358.59
2018-10-02T14:51:13.860Z,93360.64
2018-10-02T14:53:42.085Z,93353.44
2018-10-02T14:56:10.264Z,93352.81
2018-10-02T14:58:38.453Z,93356.97
2018-10-02T15:01:06.849Z,93357.47
2018-10-02T15:03:34.962Z,93353.20
2018-10-02T15:06:03.508Z,93360.22
2018-10-02T15:08:32.088Z,93353.94
2018-10-02T15:11:00.753Z,93357.62
2018-10-02T15:13:29.475Z,93355.98
2018-10-02T15:15:57.874Z,93362.57
2018-10-02T15:18:25.989Z,93364.56
2018-10-02T15:20:54.369Z,93366.58
2018-10-02T15:23:22.805Z,93373.34
2018-10-02T15:25:51.786Z,93368.72
2018-10-02T15:28:19.887Z,93372.69
2018-10-02T15:30:48.822Z,93370.69
2018-10-02T15:33:16.934Z,93374.15
2018-10-02T15:35:45.040Z,93375.78
2018-10-02T15:38:13.430Z,93380.67
2018-10-02T15:40:41.749Z,93370.61
2018-10-02T15:43:10.210Z,93369.08
2018-10-02T15:45:38.395Z,93373.03
2018-10-02T15:48:06.726Z,93376.92
2018-10-02T15:50:34.994Z,93378.23
2018-10-02T15:53:03.944Z,93383.94
2018-10-02T15:55:32.101Z,93386.55
2018-10-02T15:58:01.425Z,93385.39
2018-10-02T16:00:29.567Z,93391.47
2018-10-02T16:02:57.727Z,93391.29
2018-10-02T16:05:26.231Z,93387.97
2018-10-02T16:07:54.868Z,93391.70
2018-10-02T16:10:23.172Z,93388.08
2018-10-02T16:12:51.468Z,93395.42
2018-10-02T16:15:20.114Z,93393.98
2018-10-02T16:17:48.537Z,93392.61
2018-10-02T16:20:18.405Z,93396.62
2018-10-02T16:22:48.714Z,93395.00
2018-10-02T16:25:17.386Z,93399.45
2018-10-02T16:27:45.836Z,93405.77
2018-10-02T16:30:14.011Z,93401.95
2018-10-02T16:32:42.629Z,93399.33
2018-10-02T16:35:10.847Z,93404.35
2018-10-02T16:37:39.997Z,93420.55
2018-10-02T16:40:09.845Z,93424.36
2018-10-02T16:42:38.498Z,93427.28
2018-10-02T16:45:07.303Z,93432.80
2018-10-02T16:47:36.110Z,93423.65
2018-10-02T16:50:05.849Z,93432.12
2018-10-02T16:52:35.983Z,93431.05
2018-10-02T16:55:05.700Z,93433.69
2018-10-02T16:57:34.819Z,93432.47
2018-10-02T17:00:04.339Z,93439.84
2018-10-02T17:02:34.363Z,93441.73
2018-10-02T17:05:02.930Z,93451.51
2018-10-02T17:07:31.989Z,93451.79
2018-10-02T17:10:01.891Z,93460.28
2018-10-02T17:12:31.805Z,93460.64
2018-10-02T17:15:07.370Z,93459.98
2018-10-02T17:20:34.162Z,93469.47
2018-10-02T17:23:02.730Z,93474.30
2018-10-02T17:25:30.981Z,93476.02
2018-10-02T17:27:59.592Z,93481.41
2018-10-02T17:30:28.088Z,93479.69
2018-10-02T17:32:56.382Z,93479.86
2018-10-02T17:35:24.946Z,93489.02
2018-10-02T17:37:53.310Z,93488.66
2018-10-02T17:40:21.606Z,93490.51
2018-10-02T17:42:49.751Z,93497.46
2018-10-02T18:18:31.200Z,93554.20
2018-10-02T18:23:52.104Z,93564.22
2018-10-02T18:26:20.205Z,93567.83
2018-10-02T18:28:48.503Z,93568.09
2018-10-02T18:31:16.682Z,93571.84
2018-10-02T18:33:45.632Z,93576.65
2018-10-02T18:36:15.979Z,93578.27
2018-10-02T18:38:44.660Z,93577.80
2018-10-02T18:41:14.241Z,93585.16
2018-10-02T18:43:42.833Z,93589.49
2018-10-02T18:46:11.948Z,93591.81
2018-10-02T18:48:40.560Z,93590.01
2018-10-02T18:51:09.220Z,93591.23
2018-10-02T18:53:38.209Z,93596.40
2018-10-02T18:56:06.838Z,93599.02
2018-10-02T18:58:35.475Z,93591.19
2018-10-02T19:01:03.689Z,93592.80
2018-10-02T19:03:31.903Z,93596.84
2018-10-02T19:06:00.111Z,93597.47
2018-10-02T19:08:34.055Z,93594.25
2018-10-02T19:14:19.094Z,93598.02
2018-10-02T19:16:47.332Z,93599.23
2018-10-02T19:19:21.060Z,93600.77
2018-10-02T19:21:49.395Z,93602.34
2018-10-02T19:24:17.524Z,93611.63
2018-10-02T19:26:45.828Z,93614.36
2018-10-02T19:29:14.231Z,93611.03
2018-10-02T19:31:47.829Z,93620.20
2018-10-02T19:34:16.056Z,93623.41
2018-10-02T19:36:44.244Z,93620.46
2018-10-02T19:39:18.853Z,93622.79
2018-10-02T19:41:47.410Z,93630.41
2018-10-02T19:44:15.610Z,93639.68
2018-10-02T19:47:00.840Z,93640.16
2018-10-02T19:49:30.726Z,93642.66
2018-10-02T19:52:04.474Z,93650.60
2018-10-02T19:54:32.876Z,93659.63
2018-10-02T19:57:01.377Z,93662.13
2018-10-02T19:59:29.490Z,93657.83
2018-10-02T20:01:57.897Z,93657.13
2018-10-02T20:04:26.178Z,93663.53
2018-10-02T20:06:54.771Z,93673.00
2018-10-02T20:09:23.182Z,93677.37
2018-10-02T20:11:51.766Z,93674.98
2018-10-02T20:14:20.216Z,93673.31
2018-10-02T20:16:48.482Z,93678.12
2018-10-02T20:19:16.780Z,93678.88
2018-10-02T20:21:45.117Z,93681.09
2018-10-02T20:24:13.343Z,93680.91
2018-10-02T20:26:41.644Z,93685.70
2018-10-02T20:29:10.114Z,93686.56
2018-10-02T20:31:40.675Z,93685.84
2018-10-02T20:34:09.015Z,93695.88
2018-10-02T20:36:37.399Z,93698.80
2018-10-02T20:39:07.633Z,93704.59
2018-10-02T20:41:35.780Z,93704.17
2018-10-02T20:44:04.094Z,93706.28
2018-10-02T20:46:32.396Z,93706.77
2018-10-02T20:49:00.625Z,93713.16
2018-10-02T20:51:28.879Z,93710.60
2018-10-02T20:53:57.099Z,93713.83
2018-10-02T20:56:25.554Z,93715.09
2018-10-02T20:58:53.630Z,93719.34
2018-10-02T21:01:21.805Z,93724.73
2018-10-02T21:03:50.011Z,93724.97
2018-10-02T21:06:18.240Z,93716.03
2018-10-02T21:08:46.356Z,93721.67
2018-10-02T21:11:14.513Z,93728.75
2018-10-02T21:13:42.547Z,93727.24
2018-10-02T21:16:10.639Z,93729.50
2018-10-02T21:18:38.652Z,93734.18
2018-10-02T21:21:07.331Z,93730.53
2018-10-02T21:23:35.736Z,93731.30
2018-10-02T21:26:03.919Z,93727.30
2018-10-02T21:28:32.122Z,93736.17
2018-10-02T21:31:00.302Z,93739.86
2018-10-02T21:33:28.471Z,93739.33
2018-10-02T21:35:56.569Z,93737.39
2018-10-02T21:38:24.586Z,93737.89
2018-10-02T21:40:52.640Z,93736.88
2018-10-02T21:43:20.641Z,93739.20
2018-10-02T21:45:48.734Z,93730.23
2018-10-02T21:48:16.892Z,93728.68
2018-10-02T21:50:44.970Z,93724.96
2018-10-02T21:53:13.055Z,93729.66
2018-10-02T21:55:41.144Z,93731.39
2018-10-02T21:58:09.219Z,93728.15
2018-10-02T22:00:37.228Z,93731.20
2018-10-02T22:03:05.429Z,93733.22
2018-10-02T22:05:33.446Z,93729.88
2018-10-02T22:08:01.529Z,93730.38
2018-10-02T22:10:29.722Z,93729.91
2018-10-02T22:12:57.838Z,93727.57
2018-10-02T22:15:25.942Z,93735.78
2018-10-02T22:17:54.100Z,93731.22
2018-10-02T22:20:22.591Z,93729.48
2018-10-02T22:22:50.707Z,93733.17
2018-10-02T22:25:18.800Z,93728.72
2018-10-02T22:27:46.992Z,93726.16
2018-10-02T22:30:15.204Z,93729.86
2018-10-02T22:32:43.942Z,93731.20
2018-10-02T22:35:12.388Z,93730.73
2018-10-02T22:37:40.735Z,93736.11
2018-10-02T22:40:09.006Z,93736.03
2018-10-02T22:42:37.081Z,93748.89
2018-10-02T22:45:05.377Z,93750.37
2018-10-02T22:47:33.530Z,93743.69
2018-10-02T22:50:01.799Z,93756.22
2018-10-02T22:52:30.111Z,93756.13
2018-10-02T22:54:58.166Z,93759.85
2018-10-02T22:57:26.320Z,93758.72
2018-10-02T22:59:54.483Z,93763.47
2018-10-02T23:02:22.594Z,93761.03
2018-10-02T23:04:50.793Z,93760.39
2018-10-02T23:07:19.122Z,93765.33
2018-10-02T23:09:47.406Z,93762.23
2018-10-02T23:12:15.685Z,93774.32
2018-10-02T23:14:43.958Z,93774.96
2018-10-02T23:17:12.213Z,93777.00
2018-10-02T23:19:40.393Z,93775.52
2018-10-02T23:22:08.559Z,93781.53
2018-10-02T23:24:36.637Z,93779.87
2018-10-02T23:27:04.767Z,93780.23
2018-10-02T23:29:33.003Z,93782.05
2018-10-02T23:32:01.095Z,93783.82
2018-10-02T23:34:29.235Z,93788.34
2018-10-02T23:36:57.497Z,93789.20
2018-10-02T23:39:25.669Z,93797.84
2018-10-02T23:41:53.820Z,93791.33
2018-10-02T23:44:21.951Z,93791.16
2018-10-02T23:46:50.224Z,93796.63
2018-10-02T23:49:18.448Z,93803.87
2018-10-02T23:51:46.661Z,93805.55
2018-10-02T23:54:14.737Z,93807.38
2018-10-02T23:56:42.976Z,93813.95
2018-10-02T23:59:11.117Z,93811.95
